This is the latest recevied weather packets stored in our database for station/object N2XP-2. If no packets are shown the sender has not sent any weather packets the latest 1 day(s).
| Time | Temp. | Humidity | Pressure | Rain* | Wind** | Luminosity | Snow |
|---|---|---|---|---|---|---|---|
| 1778070855 | 19.44° C | 75% | 1010.5 hPa | 0 mm | 1.79 m/s, 231° | - | - |
| 1778070314 | 20° C | 75% | 1010.5 hPa | 0 mm | 2.24 m/s, 304° | - | - |
| 1778068943 | 20° C | 76% | 1010.8 hPa | 0 mm | 0.89 m/s, 211° | - | - |
| 1778068511 | 20° C | 74% | 1010.6 hPa | 0 mm | 1.79 m/s, 207° | - | - |
| 1778067610 | 20° C | 76% | 1010.8 hPa | 0 mm | 0.89 m/s, 211° | - | - |
| 1778066748 | 19.44° C | 78% | 1010.9 hPa | 0 mm | 1.79 m/s, 207° | - | - |
| 1778065107 | 16.67° C | 89% | 1010.8 hPa | 0 mm | 1.34 m/s, 250° | - | - |
| 1778064609 | 17.78° C | 87% | 1010.7 hPa | 0 mm | 1.34 m/s, 212° | - | - |
| 1778063179 | 16.67° C | 89% | 1010.5 hPa | 0 mm | 1.79 m/s, 240° | - | - |
| 1778062808 | 16.67° C | 89% | 1010.7 hPa | 0 mm | 1.34 m/s, 188° | - | - |
| 1778062206 | 16.67° C | 89% | 1010.6 hPa | 0 mm | 1.34 m/s, 231° | - | - |
| 1778061608 | 16.67° C | 89% | 1010.5 hPa | 0 mm | 1.79 m/s, 240° | - | - |
| 1778061305 | 16.67° C | 89% | 1010.6 hPa | 0 mm | 1.34 m/s, 201° | - | - |
| 1778061003 | 16.67° C | 89% | 1010.5 hPa | 0 mm | 1.34 m/s, 245° | - | - |
| 1778060704 | 16.67° C | 89% | 1010.5 hPa | 0 mm | 1.79 m/s, 221° | - | - |
| 1778059344 | 16.67° C | 89% | 1010.8 hPa | 0 mm | 1.34 m/s, 214° | - | - |
| 1778058299 | 16.67° C | 89% | 1010.8 hPa | 0 mm | 1.79 m/s, 204° | - | - |
| 1778057697 | 16.67° C | 88% | 1010.9 hPa | 0 mm | 1.79 m/s, 208° | - | - |
| 1778057419 | 16.67° C | 87% | 1010.9 hPa | 0 mm | 1.34 m/s, 194° | - | - |
| 1778056796 | 16.67° C | 88% | 1010.9 hPa | 0 mm | 1.34 m/s, 215° | - | - |
| 1778055894 | 16.67° C | 87% | 1010.9 hPa | 0 mm | 1.34 m/s, 194° | - | - |
| 1778055595 | 16.67° C | 87% | 1010.9 hPa | 0 mm | 1.34 m/s, 309° | - | - |
| 1778055493 | 17.22° C | 86% | 1011 hPa | 0 mm | 1.34 m/s, 287° | - | - |
| 1778054993 | 17.22° C | 87% | 1011 hPa | 0 mm | 1.79 m/s, 218° | - | - |
| 1778054694 | 17.22° C | 86% | 1011 hPa | 0 mm | 2.24 m/s, 193° | - | - |
* Rain latest hour (hover to see other rain measurements)
** Current wind speed in m/s (hover to see current wind gust speed)